Time;durP1;ratioP1;P1;durP2;ratioP2;P2;SDS_P1;SDS_P2;PMS_P1;PMS_P2;Temp;Humidity;BMP_temperature;BMP_pressure;BME280_temperature;BME280_humidity;BME280_pressure;Samples;Min_cycle;Max_cycle;Signal;HPM_P1;HPM_P2
2024/02/17 00:01:30;;;;;;;1.90;1.10;;;20.70;52.50;;;;;;5039791;28;20036;-72
2024/02/17 00:03:56;;;;;;;2.58;1.38;;;20.70;52.50;;;;;;5040096;28;20025;-72
2024/02/17 00:06:21;;;;;;;1.90;1.17;;;20.70;52.50;;;;;;5036324;28;20071;-73
2024/02/17 00:08:47;;;;;;;2.28;1.20;;;20.70;52.50;;;;;;5039837;28;20457;-73
2024/02/17 00:11:13;;;;;;;1.80;1.25;;;20.70;52.50;;;;;;5039123;28;20032;-72
2024/02/17 00:13:38;;;;;;;1.90;1.10;;;20.70;52.50;;;;;;5037621;28;20457;-71
2024/02/17 00:16:05;;;;;;;2.20;1.40;;;20.70;52.50;;;;;;5041996;28;20033;-69
2024/02/17 00:18:31;;;;;;;1.45;1.08;;;20.60;52.40;;;;;;5035648;28;20488;-73
2024/02/17 00:21:02;;;;;;;1.75;1.20;;;20.70;52.50;;;;;;5035220;28;20021;-73
2024/02/17 00:23:28;;;;;;;1.75;1.13;;;20.70;52.50;;;;;;5037134;28;20024;-72
2024/02/17 00:25:54;;;;;;;2.10;1.00;;;20.70;52.50;;;;;;5036911;28;20494;-72
2024/02/17 00:28:25;;;;;;;1.98;1.30;;;20.60;52.50;;;;;;5039258;28;20048;-73
2024/02/17 00:30:51;;;;;;;1.67;1.10;;;20.60;52.50;;;;;;5037162;28;20032;-73
2024/02/17 00:33:17;;;;;;;1.90;1.30;;;20.70;52.50;;;;;;5038331;28;20482;-71
2024/02/17 00:35:43;;;;;;;1.65;1.02;;;20.60;52.50;;;;;;5038310;28;20021;-69
2024/02/17 00:38:09;;;;;;;1.75;1.00;;;20.60;52.50;;;;;;5038003;28;20039;-71
2024/02/17 00:40:35;;;;;;;1.92;1.17;;;20.70;52.50;;;;;;5039976;28;20037;-71
2024/02/17 00:43:00;;;;;;;2.33;1.30;;;20.70;52.50;;;;;;5039545;28;20033;-71
2024/02/17 00:45:26;;;;;;;1.83;1.08;;;20.70;52.50;;;;;;5039079;28;20021;-70
2024/02/17 00:47:52;;;;;;;1.88;1.00;;;20.60;52.50;;;;;;5037604;28;20104;-71
2024/02/17 00:50:17;;;;;;;2.28;1.15;;;20.70;52.50;;;;;;5037331;28;20132;-71
2024/02/17 00:52:43;;;;;;;2.28;1.30;;;20.60;52.50;;;;;;5034595;28;20386;-70
2024/02/17 00:55:10;;;;;;;1.95;1.30;;;20.60;52.50;;;;;;5039417;28;20640;-71
2024/02/17 00:57:36;;;;;;;2.15;1.20;;;20.60;52.50;;;;;;5038233;28;20024;-71
2024/02/17 01:00:04;;;;;;;2.10;1.20;;;20.70;52.60;;;;;;5039189;28;20025;-71
2024/02/17 01:02:32;;;;;;;1.90;1.20;;;20.60;52.50;;;;;;5038267;28;20100;-68
2024/02/17 01:04:59;;;;;;;1.75;1.27;;;20.60;52.50;;;;;;5037616;28;20033;-71
2024/02/17 01:07:25;;;;;;;2.00;1.30;;;20.60;52.60;;;;;;5035636;28;20095;-70
2024/02/17 01:09:53;;;;;;;2.58;1.20;;;20.70;52.60;;;;;;5037849;28;20021;-70
2024/02/17 01:12:19;;;;;;;1.90;1.20;;;20.60;52.60;;;;;;5037383;28;20025;-70
2024/02/17 01:14:45;;;;;;;1.60;1.00;;;20.60;52.50;;;;;;5039535;28;20024;-63
2024/02/17 01:17:10;;;;;;;2.63;1.20;;;20.60;52.50;;;;;;5036353;28;20025;-63
2024/02/17 01:19:36;;;;;;;1.90;1.23;;;20.60;52.50;;;;;;5038357;28;20025;-62
2024/02/17 01:22:02;;;;;;;1.88;1.13;;;20.60;52.50;;;;;;5037211;28;20439;-62
2024/02/17 01:24:28;;;;;;;1.77;1.10;;;20.60;52.50;;;;;;5038792;28;20082;-62
2024/02/17 01:26:54;;;;;;;1.75;1.23;;;20.60;52.50;;;;;;5034556;28;20045;-63
2024/02/17 01:29:19;;;;;;;2.47;1.42;;;20.60;52.50;;;;;;5036649;28;20025;-63
2024/02/17 01:31:45;;;;;;;1.30;1.00;;;20.60;52.50;;;;;;5040609;28;20104;-63
2024/02/17 01:34:11;;;;;;;1.85;1.00;;;20.60;52.50;;;;;;5039640;28;20477;-62
2024/02/17 01:36:36;;;;;;;1.40;1.00;;;20.60;53.10;;;;;;5034507;28;20025;-71
2024/02/17 01:39:02;;;;;;;1.52;1.02;;;20.60;52.50;;;;;;5038345;28;20036;-69
2024/02/17 01:41:28;;;;;;;1.77;1.10;;;20.60;52.50;;;;;;5039618;28;20370;-73
2024/02/17 01:43:54;;;;;;;1.77;1.13;;;20.60;52.50;;;;;;5038608;28;20155;-74
2024/02/17 01:46:20;;;;;;;1.77;1.20;;;20.60;52.50;;;;;;5036980;28;20025;-73
2024/02/17 01:48:46;;;;;;;1.50;1.10;;;20.60;52.60;;;;;;5038359;28;20059;-72
2024/02/17 01:51:13;;;;;;;2.65;1.40;;;20.60;52.60;;;;;;5037759;28;20165;-72
2024/02/17 01:53:41;;;;;;;1.67;1.10;;;20.60;52.50;;;;;;5034513;28;20104;-72
2024/02/17 01:56:09;;;;;;;2.10;1.20;;;20.60;52.60;;;;;;5037906;28;20373;-73
2024/02/17 01:58:35;;;;;;;1.50;1.00;;;20.60;52.50;;;;;;5037403;28;20569;-71
2024/02/17 02:01:01;;;;;;;1.92;1.20;;;20.60;52.50;;;;;;5035302;28;20029;-71
2024/02/17 02:03:27;;;;;;;1.80;1.13;;;20.60;52.50;;;;;;5034209;28;20596;-73
2024/02/17 02:05:52;;;;;;;1.80;1.20;;;20.60;52.60;;;;;;5038671;28;20040;-73
2024/02/17 02:08:18;;;;;;;1.85;1.13;;;20.60;52.60;;;;;;5035689;28;20059;-73
2024/02/17 02:10:44;;;;;;;1.45;1.00;;;20.60;53.10;;;;;;5035187;28;20026;-73
2024/02/17 02:13:09;;;;;;;1.50;0.98;;;20.60;52.60;;;;;;5035355;28;20033;-73
2024/02/17 02:15:42;;;;;;;2.15;1.13;;;20.60;52.60;;;;;;5036955;28;20055;-68
2024/02/17 02:18:09;;;;;;;1.75;1.13;;;20.60;52.60;;;;;;5038065;28;20029;-68
2024/02/17 02:20:35;;;;;;;2.05;1.30;;;20.60;53.10;;;;;;5036141;28;20037;-68
2024/02/17 02:23:00;;;;;;;1.58;1.10;;;20.60;52.60;;;;;;5033852;28;20522;-68
2024/02/17 02:25:26;;;;;;;1.42;0.98;;;20.60;52.60;;;;;;5039421;28;20116;-72
2024/02/17 02:27:56;;;;;;;1.95;1.10;;;20.60;52.60;;;;;;5036755;28;20034;-73
2024/02/17 02:30:22;;;;;;;1.95;1.10;;;20.60;52.60;;;;;;5039510;28;20029;-73
2024/02/17 02:32:48;;;;;;;1.95;1.15;;;20.60;52.60;;;;;;5040087;28;20496;-73
2024/02/17 02:35:14;;;;;;;2.03;1.50;;;20.60;52.60;;;;;;5040484;28;20113;-73
2024/02/17 02:37:40;;;;;;;1.70;1.10;;;20.60;52.60;;;;;;5035995;28;20549;-74
2024/02/17 02:40:06;;;;;;;2.10;1.10;;;20.60;52.60;;;;;;5037281;28;20109;-72
2024/02/17 02:42:32;;;;;;;1.40;1.00;;;20.60;52.60;;;;;;5041766;28;20033;-73
2024/02/17 02:44:58;;;;;;;1.40;1.00;;;20.60;52.60;;;;;;5039331;28;20190;-65
2024/02/17 02:47:23;;;;;;;1.20;0.80;;;20.60;52.60;;;;;;5041408;28;20500;-65
2024/02/17 02:49:49;;;;;;;1.67;1.00;;;20.50;52.50;;;;;;5041853;28;20104;-66
2024/02/17 02:52:15;;;;;;;1.50;1.00;;;20.60;52.60;;;;;;5039859;28;20025;-65
2024/02/17 02:54:41;;;;;;;1.73;1.02;;;20.60;52.60;;;;;;5042743;28;20546;-65
2024/02/17 02:57:07;;;;;;;1.73;1.15;;;20.60;52.60;;;;;;5040488;28;20029;-64
2024/02/17 02:59:33;;;;;;;1.58;1.13;;;20.60;52.60;;;;;;5041071;28;20029;-65
2024/02/17 03:01:58;;;;;;;1.50;1.00;;;20.60;52.60;;;;;;5040378;28;20121;-65
2024/02/17 03:04:24;;;;;;;2.38;1.10;;;20.60;52.60;;;;;;5040778;28;20033;-64
2024/02/17 03:06:50;;;;;;;1.85;1.10;;;20.60;52.60;;;;;;5041580;28;20040;-64
2024/02/17 03:09:15;;;;;;;1.38;1.00;;;20.60;52.60;;;;;;5036264;28;20029;-65
2024/02/17 03:11:42;;;;;;;1.55;1.02;;;20.50;52.50;;;;;;5043096;28;20114;-65
2024/02/17 03:14:08;;;;;;;1.17;0.95;;;20.60;52.60;;;;;;5040518;28;20470;-66
2024/02/17 03:16:33;;;;;;;1.70;1.10;;;20.60;52.60;;;;;;5040256;28;20079;-64
2024/02/17 03:18:59;;;;;;;1.50;1.00;;;20.60;52.60;;;;;;5040432;28;20120;-64
2024/02/17 03:21:25;;;;;;;1.58;1.13;;;20.60;52.60;;;;;;5039101;28;20060;-65
2024/02/17 03:23:50;;;;;;;1.02;0.90;;;20.60;52.60;;;;;;5036513;28;20100;-65
2024/02/17 03:26:16;;;;;;;1.30;0.93;;;20.60;52.60;;;;;;5039777;28;20029;-65
2024/02/17 03:28:42;;;;;;;1.95;1.20;;;20.60;52.60;;;;;;5039332;28;20381;-65
2024/02/17 03:31:07;;;;;;;1.38;0.90;;;20.60;52.60;;;;;;5038778;28;20500;-66
2024/02/17 03:33:33;;;;;;;1.13;0.90;;;20.50;52.50;;;;;;5038586;28;20025;-66
2024/02/17 03:35:59;;;;;;;1.42;1.00;;;20.50;53.10;;;;;;5040625;28;20025;-73
2024/02/17 03:38:24;;;;;;;1.48;0.98;;;20.60;52.60;;;;;;5037498;28;20473;-74
2024/02/17 03:40:50;;;;;;;1.58;1.00;;;20.60;52.60;;;;;;5039998;28;20469;-73
2024/02/17 03:43:16;;;;;;;1.48;0.98;;;20.50;52.50;;;;;;5036858;28;20505;-73
2024/02/17 03:45:42;;;;;;;1.80;1.10;;;20.50;52.50;;;;;;5039903;28;20025;-73
2024/02/17 03:48:08;;;;;;;1.55;0.95;;;20.50;52.60;;;;;;5041644;28;20039;-74
2024/02/17 03:50:33;;;;;;;1.63;1.00;;;20.50;52.60;;;;;;5039073;28;20108;-73
2024/02/17 03:52:59;;;;;;;1.70;1.00;;;20.50;52.60;;;;;;5035137;28;20025;-73
2024/02/17 03:55:24;;;;;;;1.70;1.15;;;20.50;52.60;;;;;;5039475;28;20033;-74
2024/02/17 03:57:50;;;;;;;1.77;1.20;;;20.50;52.60;;;;;;5037746;28;20025;-73
2024/02/17 04:00:16;;;;;;;1.65;0.90;;;20.50;52.60;;;;;;5036967;28;20028;-73
2024/02/17 04:02:42;;;;;;;1.30;1.00;;;20.50;52.60;;;;;;5040609;28;20025;-73
2024/02/17 04:05:08;;;;;;;1.20;1.00;;;20.50;52.60;;;;;;5039289;28;20120;-73
2024/02/17 04:07:34;;;;;;;1.10;1.00;;;20.50;52.60;;;;;;5039383;28;20428;-68
2024/02/17 04:10:00;;;;;;;1.00;0.90;;;20.50;52.60;;;;;;5038414;28;20481;-74
2024/02/17 04:12:25;;;;;;;1.30;1.00;;;20.50;53.10;;;;;;5038413;28;20100;-73
2024/02/17 04:14:51;;;;;;;1.30;1.00;;;20.50;52.60;;;;;;5039507;28;20036;-73
2024/02/17 04:17:17;;;;;;;1.92;1.10;;;20.50;52.60;;;;;;5038753;28;20033;-72
2024/02/17 04:19:43;;;;;;;1.70;1.10;;;20.50;52.60;;;;;;5037686;28;20033;-73
2024/02/17 04:22:08;;;;;;;1.20;0.98;;;20.50;52.60;;;;;;5040108;28;20025;-72
2024/02/17 04:24:34;;;;;;;1.52;0.98;;;20.50;52.60;;;;;;5034591;28;20037;-73
2024/02/17 04:26:59;;;;;;;1.48;1.00;;;20.50;52.60;;;;;;5039727;28;20025;-73
2024/02/17 04:29:25;;;;;;;1.38;0.93;;;20.50;52.60;;;;;;5037045;28;20104;-74
2024/02/17 04:31:51;;;;;;;1.05;0.90;;;20.50;52.60;;;;;;5038076;28;20545;-73
2024/02/17 04:34:16;;;;;;;1.65;1.13;;;20.50;52.60;;;;;;5038342;28;20108;-73
2024/02/17 04:36:42;;;;;;;1.50;1.00;;;20.50;52.60;;;;;;5038551;28;20469;-72
2024/02/17 04:39:10;;;;;;;1.80;1.10;;;20.50;52.60;;;;;;5037521;28;20122;-74
2024/02/17 04:41:36;;;;;;;1.63;1.08;;;20.50;52.60;;;;;;5039201;28;20030;-72
2024/02/17 04:44:01;;;;;;;1.45;1.00;;;20.50;52.60;;;;;;5038505;28;20385;-73
2024/02/17 04:46:27;;;;;;;1.10;1.00;;;20.50;52.60;;;;;;5036524;28;20036;-68
2024/02/17 04:48:53;;;;;;;1.20;1.00;;;20.50;52.60;;;;;;5036818;28;20172;-68
2024/02/17 04:51:18;;;;;;;1.17;0.90;;;20.50;53.10;;;;;;5040010;28;20350;-68
2024/02/17 04:53:44;;;;;;;1.33;1.00;;;20.50;52.60;;;;;;5038444;28;20119;-68
2024/02/17 04:56:10;;;;;;;1.30;0.90;;;20.50;52.60;;;;;;5036631;28;20386;-68
2024/02/17 04:58:35;;;;;;;1.50;0.90;;;20.50;52.60;;;;;;5037560;28;20451;-68
2024/02/17 05:01:01;;;;;;;1.40;0.93;;;20.50;52.60;;;;;;5039066;28;20025;-68
2024/02/17 05:03:26;;;;;;;1.30;0.95;;;20.50;52.60;;;;;;5039590;28;20046;-68
2024/02/17 05:05:52;;;;;;;1.38;0.90;;;20.50;52.60;;;;;;5038378;28;20507;-65
2024/02/17 05:08:17;;;;;;;1.23;0.90;;;20.50;52.60;;;;;;5034441;28;20517;-65
2024/02/17 05:10:43;;;;;;;1.25;0.98;;;20.50;52.60;;;;;;5040503;28;20025;-66
2024/02/17 05:13:09;;;;;;;1.60;1.02;;;20.50;52.60;;;;;;5034275;28;20026;-64
2024/02/17 05:15:34;;;;;;;1.20;0.90;;;20.50;52.60;;;;;;5037554;28;20467;-66
2024/02/17 05:18:00;;;;;;;0.95;0.80;;;20.50;52.60;;;;;;5037288;28;20170;-65
2024/02/17 05:20:26;;;;;;;1.38;0.90;;;20.50;52.60;;;;;;5038303;28;20044;-65
2024/02/17 05:22:51;;;;;;;1.55;1.00;;;20.50;52.60;;;;;;5034329;28;20029;-65
2024/02/17 05:25:18;;;;;;;1.40;1.00;;;20.50;52.60;;;;;;5035829;28;20029;-65
2024/02/17 05:27:44;;;;;;;1.70;0.98;;;20.50;52.60;;;;;;5039406;28;20025;-65
2024/02/17 05:30:10;;;;;;;1.13;0.90;;;20.50;52.60;;;;;;5036429;28;20036;-65
2024/02/17 05:32:36;;;;;;;1.55;1.00;;;20.50;52.60;;;;;;5038282;28;20339;-65
2024/02/17 05:35:02;;;;;;;1.35;0.90;;;20.50;52.60;;;;;;5038586;28;20033;-66
2024/02/17 05:37:27;;;;;;;1.50;0.98;;;20.50;52.60;;;;;;5038361;28;20025;-66
2024/02/17 05:39:54;;;;;;;1.08;0.80;;;20.50;52.60;;;;;;5035151;28;20025;-66
2024/02/17 05:42:20;;;;;;;1.10;0.90;;;20.50;52.60;;;;;;5041764;28;20022;-65
2024/02/17 05:44:45;;;;;;;1.00;0.90;;;20.50;52.60;;;;;;5038808;28;20505;-65
2024/02/17 05:47:11;;;;;;;1.42;1.00;;;20.50;52.60;;;;;;5036052;28;20029;-64
2024/02/17 05:49:37;;;;;;;1.40;1.00;;;20.50;52.70;;;;;;5039879;28;20017;-64
2024/02/17 05:52:03;;;;;;;1.50;1.00;;;20.50;52.70;;;;;;5036910;28;20030;-65
2024/02/17 05:54:29;;;;;;;1.45;0.90;;;20.40;52.60;;;;;;5034750;28;20025;-66
2024/02/17 05:56:54;;;;;;;1.10;0.80;;;20.50;52.60;;;;;;5039455;28;20033;-65
2024/02/17 05:59:20;;;;;;;0.73;0.70;;;20.50;52.70;;;;;;5038098;28;20040;-64
2024/02/17 06:01:46;;;;;;;1.40;1.05;;;20.50;52.70;;;;;;5040387;28;20033;-65
2024/02/17 06:04:12;;;;;;;1.30;0.90;;;20.50;52.70;;;;;;5037734;28;20108;-64
2024/02/17 06:06:37;;;;;;;1.13;0.90;;;20.50;52.70;;;;;;5044079;28;20025;-66
2024/02/17 06:09:03;;;;;;;1.25;0.90;;;20.50;52.70;;;;;;5039648;28;20518;-66
2024/02/17 06:11:29;;;;;;;1.50;0.98;;;20.40;52.60;;;;;;5040153;28;20029;-66
2024/02/17 06:13:54;;;;;;;1.40;0.95;;;20.50;52.70;;;;;;5040805;28;20064;-64
2024/02/17 06:16:20;;;;;;;1.38;1.00;;;20.50;53.20;;;;;;5041551;28;20034;-66
2024/02/17 06:21:31;;;;;;;1.17;0.90;;;20.40;52.60;;;;;;5041442;28;20476;-66
2024/02/17 06:23:57;;;;;;;1.20;0.90;;;20.50;52.70;;;;;;5039356;28;20026;-64
2024/02/17 06:26:28;;;;;;;1.35;1.00;;;20.40;52.60;;;;;;5041424;28;20033;-65
2024/02/17 06:28:55;;;;;;;0.98;0.88;;;20.40;52.70;;;;;;5041466;28;20466;-64
2024/02/17 06:31:21;;;;;;;1.33;0.80;;;20.40;52.60;;;;;;5040914;28;20052;-64
2024/02/17 06:33:47;;;;;;;1.10;0.80;;;20.40;52.60;;;;;;5037642;28;20053;-64
2024/02/17 06:36:13;;;;;;;1.23;0.90;;;20.40;52.60;;;;;;5041460;28;20029;-64
2024/02/17 06:38:40;;;;;;;1.17;0.82;;;20.40;52.60;;;;;;5039692;28;20033;-65
2024/02/17 06:41:06;;;;;;;1.20;0.88;;;20.40;53.20;;;;;;5039312;28;20017;-64
2024/02/17 06:43:32;;;;;;;1.30;0.90;;;20.40;52.70;;;;;;5040284;28;20072;-64
2024/02/17 06:45:59;;;;;;;1.60;0.90;;;20.40;53.20;;;;;;5036954;28;20873;-65
2024/02/17 06:48:26;;;;;;;1.23;0.85;;;20.40;52.60;;;;;;5040776;28;20033;-65
2024/02/17 06:50:52;;;;;;;1.33;1.00;;;20.50;52.70;;;;;;5041434;28;20873;-64
2024/02/17 06:53:18;;;;;;;1.98;1.10;;;20.40;52.60;;;;;;5038761;28;20080;-65
2024/02/17 06:55:44;;;;;;;1.80;1.15;;;20.40;52.70;;;;;;5036413;28;20045;-65
2024/02/17 06:58:09;;;;;;;1.30;0.90;;;20.40;53.20;;;;;;5038938;28;20061;-63
2024/02/17 07:00:36;;;;;;;1.20;0.90;;;20.40;52.60;;;;;;5039578;28;20045;-64
2024/02/17 07:03:06;;;;;;;0.93;0.80;;;20.40;52.60;;;;;;5039841;28;20105;-64
2024/02/17 07:05:32;;;;;;;0.93;0.80;;;20.40;52.60;;;;;;5040202;28;20127;-64
2024/02/17 07:07:58;;;;;;;1.42;0.90;;;20.40;53.20;;;;;;5040776;28;20460;-64
2024/02/17 07:10:24;;;;;;;1.10;0.90;;;20.40;52.60;;;;;;5037480;28;20079;-65
2024/02/17 07:12:49;;;;;;;1.02;0.88;;;20.40;52.70;;;;;;5040443;28;20484;-64
2024/02/17 07:15:15;;;;;;;0.80;0.80;;;20.40;52.70;;;;;;5040324;28;20029;-65
2024/02/17 07:17:42;;;;;;;0.98;0.80;;;20.40;52.70;;;;;;5070850;28;20029;-63
2024/02/17 07:20:09;;;;;;;1.63;1.00;;;20.40;52.70;;;;;;5040726;28;20543;-63
2024/02/17 07:22:35;;;;;;;1.08;0.90;;;20.40;52.70;;;;;;5042503;28;20030;-63
2024/02/17 07:25:01;;;;;;;1.42;1.02;;;20.40;52.60;;;;;;5039146;28;20025;-63
2024/02/17 07:27:27;;;;;;;1.75;0.93;;;20.40;52.70;;;;;;5039898;28;20091;-63
2024/02/17 07:29:53;;;;;;;1.45;1.00;;;20.40;52.70;;;;;;5041238;28;20068;-62
2024/02/17 07:32:22;;;;;;;0.88;0.80;;;20.40;52.70;;;;;;5036843;28;20064;-62
2024/02/17 07:34:48;;;;;;;1.25;0.88;;;20.40;52.70;;;;;;5038423;28;20404;-62
2024/02/17 07:37:14;;;;;;;1.70;1.00;;;20.40;52.70;;;;;;5039022;28;20032;-62
2024/02/17 07:39:40;;;;;;;1.50;1.00;;;20.40;52.70;;;;;;5038668;28;20082;-62
2024/02/17 07:42:07;;;;;;;1.20;0.95;;;20.40;52.70;;;;;;5039762;28;20567;-61
2024/02/17 07:44:32;;;;;;;1.23;0.90;;;20.40;52.70;;;;;;5039161;28;20033;-62
2024/02/17 07:46:58;;;;;;;1.30;0.90;;;20.40;53.20;;;;;;5038057;28;20026;-62
2024/02/17 07:49:24;;;;;;;0.90;0.80;;;20.40;52.70;;;;;;5040384;28;20338;-63
2024/02/17 07:51:49;;;;;;;1.25;0.90;;;20.40;52.70;;;;;;5038730;28;20033;-62
2024/02/17 07:54:15;;;;;;;1.70;1.10;;;20.40;52.70;;;;;;5039934;28;20466;-62
2024/02/17 07:56:41;;;;;;;1.40;1.00;;;20.40;52.70;;;;;;5036845;28;20029;-62
2024/02/17 07:59:06;;;;;;;1.05;0.82;;;20.40;52.70;;;;;;5040042;28;20108;-62
2024/02/17 08:01:32;;;;;;;1.35;0.90;;;20.40;52.70;;;;;;5038752;28;20037;-62
2024/02/17 08:03:58;;;;;;;1.20;0.90;;;20.40;52.70;;;;;;5039688;28;20029;-63
2024/02/17 08:06:23;;;;;;;1.33;0.82;;;20.40;52.70;;;;;;5039788;28;20068;-61
2024/02/17 08:08:49;;;;;;;1.85;1.05;;;20.40;52.70;;;;;;5040008;28;20029;-62
2024/02/17 08:11:15;;;;;;;1.30;0.90;;;20.40;52.70;;;;;;5035036;28;20034;-62
2024/02/17 08:13:42;;;;;;;1.65;1.10;;;20.40;52.70;;;;;;5040141;28;20033;-63
2024/02/17 08:16:08;;;;;;;1.02;0.80;;;20.40;52.70;;;;;;5036706;28;20100;-63
2024/02/17 08:18:34;;;;;;;1.20;0.90;;;20.40;53.20;;;;;;5038136;28;20025;-64
2024/02/17 08:21:02;;;;;;;1.45;1.00;;;20.40;52.70;;;;;;5036974;28;20036;-63
2024/02/17 08:23:28;;;;;;;1.50;0.90;;;20.40;52.70;;;;;;5036500;28;20462;-63
2024/02/17 08:25:55;;;;;;;1.05;0.80;;;20.30;52.60;;;;;;5035464;28;20470;-64
2024/02/17 08:28:21;;;;;;;1.00;0.90;;;20.40;52.70;;;;;;5034057;28;20037;-63
2024/02/17 08:30:46;;;;;;;1.40;0.95;;;20.30;52.60;;;;;;5037559;28;20029;-64
2024/02/17 08:33:12;;;;;;;1.40;0.90;;;20.40;52.70;;;;;;5038102;28;20032;-64
2024/02/17 08:35:37;;;;;;;0.95;0.85;;;20.30;52.60;;;;;;5036507;28;20100;-68
2024/02/17 08:38:04;;;;;;;1.15;0.80;;;20.40;53.20;;;;;;5039110;28;20071;-67
2024/02/17 08:40:30;;;;;;;1.17;0.80;;;20.40;52.70;;;;;;5037382;28;20025;-68
2024/02/17 08:42:55;;;;;;;1.13;0.90;;;20.30;52.70;;;;;;5038941;28;20642;-67
2024/02/17 08:45:21;;;;;;;1.00;0.88;;;20.40;52.70;;;;;;5038493;28;20083;-68
2024/02/17 08:47:46;;;;;;;0.70;0.70;;;20.40;52.70;;;;;;5037790;28;20053;-67
2024/02/17 08:50:12;;;;;;;1.08;0.80;;;20.30;52.70;;;;;;5037164;28;20030;-67
2024/02/17 08:52:38;;;;;;;1.38;0.90;;;20.30;52.70;;;;;;5037718;28;20025;-67
2024/02/17 08:55:04;;;;;;;0.90;0.75;;;20.30;52.70;;;;;;5037014;28;20032;-66
2024/02/17 08:57:29;;;;;;;1.48;1.00;;;20.40;52.70;;;;;;5034396;28;20356;-67
2024/02/17 08:59:55;;;;;;;1.30;0.90;;;20.30;52.70;;;;;;5039674;28;20037;-67
2024/02/17 09:02:20;;;;;;;1.33;0.80;;;20.40;52.70;;;;;;5038008;28;20036;-66
2024/02/17 09:04:46;;;;;;;1.20;0.90;;;20.30;52.70;;;;;;5036384;28;20032;-68
2024/02/17 09:07:12;;;;;;;1.38;0.90;;;20.30;52.70;;;;;;5037949;28;20033;-67
2024/02/17 09:09:38;;;;;;;1.25;0.90;;;20.40;52.80;;;;;;5039753;28;20096;-66
2024/02/17 09:12:04;;;;;;;1.40;0.90;;;20.30;52.70;;;;;;5035469;28;20131;-67
2024/02/17 09:14:33;;;;;;;1.13;0.80;;;20.30;52.70;;;;;;5038574;28;20029;-68
2024/02/17 09:16:59;;;;;;;1.08;0.90;;;20.30;52.70;;;;;;5039205;28;20021;-67
2024/02/17 09:19:25;;;;;;;1.10;0.85;;;20.30;52.70;;;;;;5038536;28;20041;-67
2024/02/17 09:21:52;;;;;;;1.50;1.17;;;20.30;52.70;;;;;;5039290;28;20029;-67
2024/02/17 09:24:20;;;;;;;1.20;0.80;;;20.30;52.70;;;;;;5038088;28;20069;-67
2024/02/17 09:26:46;;;;;;;1.10;0.95;;;20.30;52.70;;;;;;5035611;28;20068;-67
2024/02/17 09:29:12;;;;;;;1.23;0.90;;;20.30;52.70;;;;;;5037573;28;20143;-67
2024/02/17 09:31:37;;;;;;;1.00;0.80;;;20.30;52.70;;;;;;5036400;28;20028;-67
2024/02/17 09:34:03;;;;;;;0.95;0.85;;;20.30;52.80;;;;;;5037142;28;20496;-67
2024/02/17 09:36:30;;;;;;;1.75;1.00;;;20.30;52.80;;;;;;5036104;28;20070;-67
2024/02/17 09:38:56;;;;;;;1.23;0.98;;;20.30;52.80;;;;;;5037186;28;20482;-67
2024/02/17 09:41:21;;;;;;;0.73;0.70;;;20.30;52.80;;;;;;5039490;28;20070;-67
2024/02/17 09:43:49;;;;;;;1.27;0.90;;;20.30;52.80;;;;;;5040987;28;20021;-67
2024/02/17 09:46:17;;;;;;;1.45;1.10;;;20.30;52.80;;;;;;5041425;28;20021;-67
2024/02/17 09:48:43;;;;;;;1.00;0.90;;;20.30;52.80;;;;;;5041928;28;20030;-67
2024/02/17 09:51:09;;;;;;;1.27;0.80;;;20.30;52.80;;;;;;5042427;28;20033;-67
2024/02/17 09:53:37;;;;;;;1.13;0.90;;;20.30;52.80;;;;;;5041984;28;20021;-67
2024/02/17 09:56:03;;;;;;;1.30;0.90;;;20.30;52.80;;;;;;5038190;28;20067;-67
2024/02/17 09:58:29;;;;;;;1.08;0.80;;;20.30;52.80;;;;;;5040018;28;20064;-66
2024/02/17 10:00:54;;;;;;;1.23;0.88;;;20.30;52.80;;;;;;5039288;28;20021;-67
2024/02/17 10:03:22;;;;;;;1.20;0.90;;;20.30;52.80;;;;;;5041942;28;20522;-67
2024/02/17 10:05:48;;;;;;;1.20;0.90;;;20.30;52.80;;;;;;5040424;28;20025;-67
2024/02/17 10:08:13;;;;;;;0.90;0.73;;;20.30;52.80;;;;;;5041677;28;20489;-67
2024/02/17 10:10:43;;;;;;;0.80;0.70;;;20.30;52.80;;;;;;5038130;28;20073;-67
2024/02/17 10:13:16;;;;;;;0.80;0.70;;;20.30;52.80;;;;;;5039202;28;20028;-67
2024/02/17 10:15:43;;;;;;;0.85;0.80;;;20.30;52.80;;;;;;5041282;28;20029;-67
2024/02/17 10:18:08;;;;;;;1.00;0.80;;;20.30;52.80;;;;;;5038973;28;20493;-67
2024/02/17 10:20:35;;;;;;;1.58;1.00;;;20.30;52.80;;;;;;5042125;28;20032;-67
2024/02/17 10:23:01;;;;;;;0.93;0.80;;;20.30;52.80;;;;;;5042784;28;20108;-67
2024/02/17 10:25:28;;;;;;;0.90;0.80;;;20.40;52.90;;;;;;5040872;28;20230;-68
2024/02/17 10:27:54;;;;;;;1.25;1.00;;;20.30;52.80;;;;;;5038084;28;20025;-67
2024/02/17 10:30:20;;;;;;;0.85;0.80;;;20.30;52.80;;;;;;5041737;28;20032;-67
2024/02/17 10:32:46;;;;;;;1.05;0.80;;;20.30;52.80;;;;;;5039262;28;20038;-66
2024/02/17 10:35:12;;;;;;;1.10;0.88;;;20.30;53.30;;;;;;5042189;28;20037;-65
2024/02/17 10:37:40;;;;;;;1.27;0.82;;;20.30;52.80;;;;;;5042625;28;20029;-72
2024/02/17 10:40:10;;;;;;;1.30;0.90;;;20.30;52.80;;;;;;5043538;28;20033;-71
2024/02/17 10:42:36;;;;;;;1.20;0.90;;;20.30;52.80;;;;;;5039038;28;20044;-71
2024/02/17 10:45:03;;;;;;;1.35;0.80;;;20.30;52.90;;;;;;5041780;28;20033;-72
2024/02/17 10:47:36;;;;;;;1.15;0.98;;;20.30;53.40;;;;;;5039181;28;20125;-72
2024/02/17 10:50:16;;;;;;;1.08;0.80;;;20.30;52.90;;;;;;5040129;28;20036;-70
2024/02/17 10:53:04;;;;;;;0.95;0.80;;;20.40;52.90;;;;;;5040196;28;20035;-71
2024/02/17 10:55:36;;;;;;;1.10;0.90;;;20.40;53.00;;;;;;5041517;28;20113;-64
2024/02/17 10:58:23;;;;;;;0.80;0.80;;;20.30;52.90;;;;;;5037228;28;20033;-64
2024/02/17 11:00:49;;;;;;;1.08;0.90;;;20.30;52.90;;;;;;5038217;28;20108;-65
2024/02/17 11:03:29;;;;;;;0.90;0.80;;;20.30;52.90;;;;;;5038335;28;20552;-65
2024/02/17 11:05:59;;;;;;;1.23;0.90;;;20.40;53.00;;;;;;5073100;28;20029;-64
2024/02/17 11:08:24;;;;;;;0.95;0.85;;;20.30;52.90;;;;;;5040441;28;20480;-64
2024/02/17 11:10:50;;;;;;;1.23;0.70;;;20.40;52.90;;;;;;5041020;28;20128;-64
2024/02/17 11:13:24;;;;;;;1.00;0.90;;;20.40;53.00;;;;;;5039627;28;20060;-64
2024/02/17 11:16:04;;;;;;;1.00;0.90;;;20.40;53.00;;;;;;5039473;28;20032;-65
2024/02/17 11:18:37;;;;;;;0.90;0.75;;;20.40;53.00;;;;;;5039919;28;20061;-66
2024/02/17 11:21:04;;;;;;;1.00;0.85;;;20.40;53.00;;;;;;5037163;28;20512;-65
2024/02/17 11:23:34;;;;;;;1.08;0.88;;;20.40;53.00;;;;;;5040219;28;20020;-65
2024/02/17 11:26:00;;;;;;;1.10;0.90;;;20.30;52.90;;;;;;5037408;28;20098;-64
2024/02/17 11:28:26;;;;;;;1.10;0.88;;;20.40;53.00;;;;;;5037195;28;20108;-65
2024/02/17 11:30:52;;;;;;;0.73;0.70;;;20.40;53.00;;;;;;5041588;28;20450;-64
2024/02/17 11:33:31;;;;;;;1.35;0.90;;;20.40;53.00;;;;;;5034646;28;20478;-66
2024/02/17 11:36:03;;;;;;;0.75;0.70;;;20.40;53.00;;;;;;5037806;28;20017;-65
2024/02/17 11:38:30;;;;;;;0.85;0.77;;;20.40;53.00;;;;;;5040119;28;20107;-65
2024/02/17 11:40:58;;;;;;;1.15;0.88;;;20.40;53.00;;;;;;5038107;28;20374;-64
2024/02/17 11:43:28;;;;;;;1.10;0.82;;;20.40;53.00;;;;;;5037253;28;20497;-64
2024/02/17 11:45:55;;;;;;;1.20;0.90;;;20.30;52.90;;;;;;5039424;28;20032;-63
2024/02/17 11:48:21;;;;;;;0.70;0.70;;;20.40;53.00;;;;;;5039836;28;20503;-64
2024/02/17 11:50:47;;;;;;;1.00;0.80;;;20.40;53.00;;;;;;5039349;28;20024;-64
2024/02/17 11:53:13;;;;;;;1.05;0.82;;;20.40;53.50;;;;;;5040050;28;20021;-65
2024/02/17 11:55:40;;;;;;;0.90;0.80;;;20.40;53.00;;;;;;5041993;28;20037;-64
2024/02/17 11:58:08;;;;;;;1.17;0.88;;;20.40;53.00;;;;;;5035571;28;20473;-63
2024/02/17 12:00:46;;;;;;;1.10;0.90;;;20.40;53.00;;;;;;5039976;28;20028;-65
2024/02/17 12:03:12;;;;;;;1.27;0.90;;;20.40;53.00;;;;;;5037182;28;20106;-64
2024/02/17 12:05:37;;;;;;;1.10;0.90;;;20.40;53.10;;;;;;5039024;28;20044;-67
2024/02/17 12:08:03;;;;;;;1.00;0.80;;;20.40;53.00;;;;;;5038504;28;20037;-67
2024/02/17 12:10:29;;;;;;;1.00;0.82;;;20.40;53.00;;;;;;5039790;28;20083;-67
2024/02/17 12:12:55;;;;;;;0.98;0.80;;;20.40;53.00;;;;;;5038411;28;20036;-67
2024/02/17 12:15:21;;;;;;;1.20;1.00;;;20.40;53.00;;;;;;5037952;28;20440;-66
2024/02/17 12:17:47;;;;;;;1.25;0.90;;;20.40;53.00;;;;;;5038239;28;20144;-66
2024/02/17 12:20:14;;;;;;;1.27;0.80;;;20.40;53.00;;;;;;5038063;28;20116;-66
2024/02/17 12:22:51;;;;;;;1.25;0.80;;;20.40;53.00;;;;;;5037096;28;20029;-66
2024/02/17 12:25:18;;;;;;;1.30;0.80;;;20.40;53.00;;;;;;5039130;28;20542;-66
2024/02/17 12:27:46;;;;;;;1.40;1.00;;;20.40;53.00;;;;;;5037397;28;20044;-66
2024/02/17 12:30:13;;;;;;;1.15;0.90;;;20.40;53.00;;;;;;5040247;28;20059;-66
2024/02/17 12:32:43;;;;;;;1.60;1.00;;;20.40;53.00;;;;;;5038288;28;20048;-66
2024/02/17 12:35:17;;;;;;;1.23;0.70;;;20.40;53.00;;;;;;5038591;28;20857;-67
2024/02/17 12:37:44;;;;;;;2.22;1.00;;;20.40;53.00;;;;;;5039715;28;20451;-66
2024/02/17 12:40:17;;;;;;;1.30;0.98;;;20.40;53.00;;;;;;5037693;28;20075;-66
2024/02/17 12:42:44;;;;;;;1.45;0.95;;;20.40;53.10;;;;;;5034085;28;20033;-66
2024/02/17 12:45:32;;;;;;;1.25;0.90;;;20.40;53.00;;;;;;5037740;28;20036;-66
2024/02/17 12:48:01;;;;;;;1.77;0.98;;;20.40;53.00;;;;;;5039055;28;20032;-66